Time;durP1;ratioP1;P1;durP2;ratioP2;P2;SDS_P1;SDS_P2;PMS_P1;PMS_P2;Temp;Humidity;BMP_temperature;BMP_pressure;BME280_temperature;BME280_humidity;BME280_pressure;Samples;Min_cycle;Max_cycle;Signal;HPM_P1;HPM_P2
2023/09/01 00:00:12;;;;;;;1.67;0.70;;;22.20;91.30;;;;;;4994803;28;20026;-75
2023/09/01 00:02:39;;;;;;;1.20;0.70;;;22.30;91.30;;;;;;4994538;28;20026;-75
2023/09/01 00:05:05;;;;;;;0.93;0.55;;;22.20;91.30;;;;;;4994711;28;20039;-75
2023/09/01 00:07:31;;;;;;;2.85;0.77;;;22.30;91.20;;;;;;4994509;28;20057;-76
2023/09/01 00:09:57;;;;;;;1.63;0.80;;;22.30;91.10;;;;;;4995296;28;20050;-76
2023/09/01 00:12:22;;;;;;;2.47;0.50;;;22.20;91.10;;;;;;4995446;28;20045;-77
2023/09/01 00:14:48;;;;;;;3.63;0.70;;;22.20;91.10;;;;;;4995174;28;20065;-78
2023/09/01 00:17:14;;;;;;;1.88;0.80;;;22.30;91.10;;;;;;4995585;28;20459;-77
2023/09/01 00:19:40;;;;;;;0.93;0.70;;;22.40;91.10;;;;;;4993163;28;20030;-78
2023/09/01 00:22:06;;;;;;;0.93;0.63;;;22.40;91.00;;;;;;4995006;28;20081;-76
2023/09/01 00:24:32;;;;;;;0.85;0.52;;;22.40;91.00;;;;;;4994399;28;20026;-76
2023/09/01 00:27:01;;;;;;;1.88;0.73;;;22.40;91.00;;;;;;4975937;28;20040;-78
2023/09/01 00:29:27;;;;;;;1.15;0.80;;;22.50;90.90;;;;;;4992224;28;20106;-77
2023/09/01 00:31:53;;;;;;;2.05;0.73;;;22.40;90.90;;;;;;4991013;28;20113;-77
2023/09/01 00:34:18;;;;;;;1.15;0.70;;;22.40;90.80;;;;;;4992445;28;20026;-76
2023/09/01 00:36:44;;;;;;;1.27;0.57;;;22.40;90.90;;;;;;4992042;28;20043;-75
2023/09/01 00:39:10;;;;;;;1.42;0.60;;;22.40;90.80;;;;;;4992863;28;20109;-81
2023/09/01 00:41:37;;;;;;;1.38;0.73;;;22.40;90.80;;;;;;4968517;28;20045;-81
2023/09/01 00:44:03;;;;;;;0.98;0.80;;;22.40;90.80;;;;;;4967097;28;20111;-82
2023/09/01 00:46:31;;;;;;;0.45;0.45;;;22.40;90.80;;;;;;4968397;28;20404;-76
2023/09/01 00:48:57;;;;;;;1.15;0.85;;;22.40;90.80;;;;;;4987092;28;20466;-81
2023/09/01 00:51:25;;;;;;;0.60;0.57;;;22.40;90.80;;;;;;4984348;28;20026;-76
2023/09/01 00:53:51;;;;;;;1.80;0.88;;;22.40;90.80;;;;;;4986568;28;20026;-83
2023/09/01 00:56:19;;;;;;;1.08;0.68;;;22.40;90.80;;;;;;4982887;28;20061;-82
2023/09/01 00:58:46;;;;;;;1.40;0.70;;;22.40;90.80;;;;;;4988273;28;20046;-82
2023/09/01 01:01:12;;;;;;;0.80;0.60;;;22.40;90.80;;;;;;4994007;28;20033;-83
2023/09/01 01:03:39;;;;;;;2.97;0.80;;;22.40;90.80;;;;;;4993641;28;20441;-82
2023/09/01 01:06:35;;;;;;;1.95;0.80;;;22.40;90.80;;;;;;4999583;28;20030;-81
2023/09/01 01:09:02;;;;;;;1.05;0.85;;;22.40;90.90;;;;;;4982624;28;20065;-80
2023/09/01 01:11:43;;;;;;;1.25;0.85;;;22.40;90.80;;;;;;4993669;28;20038;-81
2023/09/01 01:14:22;;;;;;;2.83;1.33;;;22.40;90.90;;;;;;4993604;28;20038;-81
2023/09/01 01:16:49;;;;;;;2.03;0.90;;;22.40;90.90;;;;;;4993563;28;20036;-81
2023/09/01 01:19:22;;;;;;;1.83;0.90;;;22.40;90.90;;;;;;4994437;28;20030;-81
2023/09/01 01:21:52;;;;;;;1.45;0.85;;;22.40;90.80;;;;;;4993160;28;20026;-80
2023/09/01 01:24:17;;;;;;;1.23;0.75;;;22.40;90.80;;;;;;4994322;28;20034;-81
2023/09/01 01:26:43;;;;;;;1.45;0.90;;;22.40;90.80;;;;;;4995402;28;20533;-80
2023/09/01 01:29:09;;;;;;;2.03;0.77;;;22.40;90.90;;;;;;4992896;28;20097;-81
2023/09/01 01:31:35;;;;;;;1.52;0.75;;;22.40;91.00;;;;;;4976460;28;20026;-80
2023/09/01 01:34:27;;;;;;;0.73;0.68;;;22.30;91.00;;;;;;4993848;28;20058;-80
2023/09/01 01:37:08;;;;;;;1.25;0.80;;;22.30;91.10;;;;;;4993779;28;20033;-80
2023/09/01 01:39:34;;;;;;;1.35;1.10;;;22.20;91.20;;;;;;4993810;28;20027;-80
2023/09/01 01:42:05;;;;;;;1.38;1.00;;;22.20;91.30;;;;;;4993852;28;20077;-81
2023/09/01 01:44:41;;;;;;;1.10;0.90;;;22.20;91.40;;;;;;4992560;28;20030;-80
2023/09/01 01:47:08;;;;;;;1.15;0.80;;;22.20;91.40;;;;;;4980237;28;20034;-80
2023/09/01 01:49:34;;;;;;;2.45;1.10;;;22.20;91.50;;;;;;4994746;28;20102;-80
2023/09/01 01:52:00;;;;;;;1.00;0.90;;;22.20;91.50;;;;;;4993202;28;20101;-80
2023/09/01 01:54:26;;;;;;;3.42;0.80;;;22.10;91.50;;;;;;4988834;28;20054;-80
2023/09/01 01:56:52;;;;;;;1.50;1.20;;;22.20;91.60;;;;;;4961776;28;20380;-79
2023/09/01 01:59:18;;;;;;;1.40;1.10;;;22.10;91.70;;;;;;4988715;28;20030;-79
2023/09/01 02:01:43;;;;;;;1.08;0.88;;;22.10;91.70;;;;;;4991937;28;20561;-79
2023/09/01 02:04:09;;;;;;;2.92;1.00;;;22.10;91.80;;;;;;4992324;28;20030;-78
2023/09/01 02:06:35;;;;;;;1.15;1.00;;;22.10;91.80;;;;;;4975399;28;20037;-81
2023/09/01 02:09:02;;;;;;;1.40;1.00;;;22.10;91.90;;;;;;4993337;28;20018;-81
2023/09/01 02:11:27;;;;;;;2.72;1.00;;;22.10;91.90;;;;;;4997432;28;20073;-81
2023/09/01 02:13:53;;;;;;;2.35;0.73;;;22.10;91.90;;;;;;4997423;28;20062;-81
2023/09/01 02:16:19;;;;;;;1.23;0.77;;;22.10;91.90;;;;;;4997605;28;20030;-81
2023/09/01 02:18:44;;;;;;;1.00;0.80;;;22.10;92.00;;;;;;4999200;28;20519;-81
2023/09/01 02:21:18;;;;;;;2.03;1.00;;;22.10;92.00;;;;;;4989385;28;20475;-81
2023/09/01 02:23:44;;;;;;;2.58;0.82;;;22.10;92.00;;;;;;4997513;28;20045;-81
2023/09/01 02:26:17;;;;;;;2.38;0.90;;;22.10;92.00;;;;;;4997509;28;20030;-80
2023/09/01 02:28:43;;;;;;;1.00;0.85;;;22.10;92.10;;;;;;4999140;28;20035;-80
2023/09/01 02:31:09;;;;;;;1.15;0.90;;;22.10;92.10;;;;;;4997429;28;20475;-81
2023/09/01 02:33:35;;;;;;;1.42;0.90;;;22.10;92.20;;;;;;4997095;28;20035;-81
2023/09/01 02:36:23;;;;;;;3.53;1.23;;;22.10;92.20;;;;;;4983557;28;20036;-81
2023/09/01 02:38:49;;;;;;;1.92;0.95;;;22.00;92.30;;;;;;4996997;28;20113;-81
2023/09/01 02:41:15;;;;;;;1.58;0.80;;;22.10;92.40;;;;;;4997136;28;20110;-80
2023/09/01 02:43:41;;;;;;;0.98;0.80;;;22.00;92.40;;;;;;4996051;28;20030;-80
2023/09/01 02:46:07;;;;;;;0.88;0.70;;;22.00;92.50;;;;;;4997445;28;20034;-77
2023/09/01 02:48:33;;;;;;;3.15;0.80;;;22.00;92.50;;;;;;4997714;28;20054;-81
2023/09/01 02:50:58;;;;;;;1.35;0.70;;;22.00;92.50;;;;;;4993144;28;20476;-79
2023/09/01 02:53:24;;;;;;;1.42;0.85;;;22.00;92.50;;;;;;4986852;28;20363;-78
2023/09/01 02:55:50;;;;;;;2.58;0.85;;;22.00;92.60;;;;;;4977647;28;20022;-79
2023/09/01 02:58:16;;;;;;;1.55;0.90;;;21.90;92.60;;;;;;4985215;28;20305;-80
2023/09/01 03:00:44;;;;;;;1.75;0.73;;;21.90;92.70;;;;;;5003560;28;20021;-80
2023/09/01 03:03:10;;;;;;;1.65;1.00;;;21.90;92.70;;;;;;4995278;28;20061;-79
2023/09/01 03:05:36;;;;;;;1.50;0.82;;;21.90;92.80;;;;;;5047529;23;20137;-77
2023/09/01 03:08:02;;;;;;;1.60;0.90;;;21.90;92.80;;;;;;4984750;28;20109;-76
2023/09/01 03:10:28;;;;;;;3.72;1.10;;;21.90;92.80;;;;;;5016285;28;20452;-77
2023/09/01 03:12:54;;;;;;;0.98;0.88;;;21.90;92.90;;;;;;5015343;28;20037;-77
2023/09/01 03:15:21;;;;;;;1.85;1.23;;;21.90;92.90;;;;;;5007938;28;20026;-75
2023/09/01 03:17:47;;;;;;;1.83;0.80;;;21.90;92.90;;;;;;5007923;28;20017;-76
2023/09/01 03:20:12;;;;;;;3.40;1.27;;;21.90;92.90;;;;;;5014682;28;20034;-77
2023/09/01 03:22:38;;;;;;;3.88;1.13;;;21.80;93.00;;;;;;5013739;28;20060;-76
2023/09/01 03:25:09;;;;;;;1.63;1.10;;;21.80;93.00;;;;;;4997389;28;20077;-85
2023/09/01 03:27:37;;;;;;;1.10;1.00;;;21.80;93.00;;;;;;5015665;28;20018;-86
2023/09/01 03:30:03;;;;;;;1.02;0.93;;;21.80;93.10;;;;;;5018253;28;20049;-85
2023/09/01 03:32:30;;;;;;;2.15;1.13;;;21.80;93.10;;;;;;5015007;28;20022;-86
2023/09/01 03:34:55;;;;;;;1.25;0.90;;;21.70;93.10;;;;;;5009132;28;20018;-85
2023/09/01 03:37:22;;;;;;;4.25;1.50;;;21.70;93.10;;;;;;5015496;28;20099;-88
2023/09/01 03:39:48;;;;;;;1.45;0.98;;;21.70;93.10;;;;;;5013711;28;20045;-88
2023/09/01 03:42:14;;;;;;;1.52;1.00;;;21.70;93.10;;;;;;5015777;28;20026;-86
2023/09/01 03:44:40;;;;;;;1.63;0.90;;;21.70;93.20;;;;;;5009003;28;20026;-87
2023/09/01 03:47:06;;;;;;;2.47;1.55;;;21.70;93.20;;;;;;5015632;28;20037;-87
2023/09/01 03:49:32;;;;;;;2.60;1.40;;;21.70;93.20;;;;;;5013683;28;20038;-86
2023/09/01 03:51:59;;;;;;;1.25;1.00;;;21.70;93.20;;;;;;5020602;28;20041;-86
2023/09/01 03:54:24;;;;;;;1.33;1.23;;;21.60;93.30;;;;;;5012817;28;20011;-86
2023/09/01 03:56:50;;;;;;;3.22;1.25;;;21.60;93.30;;;;;;5014779;28;20470;-85
2023/09/01 03:59:16;;;;;;;1.58;0.98;;;21.60;93.40;;;;;;5014432;28;20034;-86
2023/09/01 04:01:45;;;;;;;1.65;1.30;;;21.50;93.40;;;;;;5013745;28;20126;-86
2023/09/01 04:04:11;;;;;;;2.78;1.33;;;21.50;93.50;;;;;;5013061;28;20087;-86
2023/09/01 04:06:40;;;;;;;1.45;1.10;;;21.50;93.50;;;;;;5014763;28;20056;-85
2023/09/01 04:09:08;;;;;;;1.75;1.23;;;21.50;93.60;;;;;;5013524;28;20088;-87
2023/09/01 04:11:34;;;;;;;2.97;1.92;;;21.40;93.60;;;;;;5014838;28;20037;-85
2023/09/01 04:14:01;;;;;;;4.22;2.00;;;21.30;93.90;;;;;;5012145;28;20026;-85
2023/09/01 04:16:27;;;;;;;2.15;1.50;;;21.20;94.00;;;;;;5014179;28;20038;-85
2023/09/01 04:18:55;;;;;;;4.25;1.38;;;21.20;94.00;;;;;;5014204;28;20097;-85
2023/09/01 04:21:20;;;;;;;1.58;1.25;;;21.10;94.20;;;;;;5015535;28;20117;-85
2023/09/01 04:23:46;;;;;;;2.10;1.48;;;21.20;94.10;;;;;;5013323;28;20427;-86
2023/09/01 04:26:12;;;;;;;3.35;1.27;;;21.10;94.10;;;;;;5015169;28;20025;-86
2023/09/01 04:28:38;;;;;;;3.08;1.50;;;21.20;94.10;;;;;;5014427;28;20026;-86
2023/09/01 04:31:24;;;;;;;1.38;1.20;;;21.30;94.10;;;;;;5014271;28;20099;-83
2023/09/01 04:33:50;;;;;;;2.60;1.33;;;21.30;94.10;;;;;;5014182;28;20065;-84
2023/09/01 04:36:16;;;;;;;2.10;1.50;;;21.30;94.10;;;;;;5014779;28;20073;-83
2023/09/01 04:38:42;;;;;;;1.98;1.27;;;21.30;94.10;;;;;;5013018;28;20057;-85
2023/09/01 04:41:08;;;;;;;2.05;1.55;;;21.30;94.10;;;;;;5014398;28;20026;-84
2023/09/01 04:43:33;;;;;;;2.75;1.35;;;21.30;94.00;;;;;;5013605;28;20478;-84
2023/09/01 04:45:59;;;;;;;1.75;1.33;;;21.30;94.00;;;;;;5014816;28;20077;-84
2023/09/01 04:48:26;;;;;;;3.00;1.48;;;21.40;94.00;;;;;;4996693;28;20033;-85
2023/09/01 04:50:51;;;;;;;2.40;1.67;;;21.40;94.00;;;;;;5013750;28;20041;-86
2023/09/01 04:53:18;;;;;;;1.90;1.77;;;21.40;94.00;;;;;;5012914;28;20022;-85
2023/09/01 04:55:44;;;;;;;2.40;1.60;;;21.30;94.10;;;;;;5013598;28;20409;-84
2023/09/01 04:58:10;;;;;;;2.65;1.70;;;21.30;94.10;;;;;;5012955;28;20037;-85
2023/09/01 05:00:36;;;;;;;2.28;1.42;;;21.20;94.10;;;;;;5012795;28;20041;-85
2023/09/01 05:03:02;;;;;;;1.85;1.75;;;21.20;94.20;;;;;;5017995;28;20145;-84
2023/09/01 05:05:28;;;;;;;2.92;1.52;;;21.30;94.20;;;;;;4996866;28;20057;-84
2023/09/01 05:07:53;;;;;;;3.97;1.75;;;21.20;94.20;;;;;;5015503;28;20030;-85
2023/09/01 05:10:19;;;;;;;2.00;1.55;;;21.20;94.20;;;;;;5010700;28;20025;-85
2023/09/01 05:12:45;;;;;;;2.20;1.70;;;21.20;94.20;;;;;;5012454;28;20065;-84
2023/09/01 05:15:12;;;;;;;2.50;1.67;;;21.30;94.20;;;;;;5013340;28;20476;-88
2023/09/01 05:17:38;;;;;;;2.80;1.95;;;21.30;94.20;;;;;;5011467;28;20037;-83
2023/09/01 05:20:07;;;;;;;2.20;1.85;;;21.30;94.20;;;;;;5013611;28;20025;-87
2023/09/01 05:22:33;;;;;;;2.15;1.85;;;21.30;94.30;;;;;;5013964;28;20057;-84
2023/09/01 05:24:59;;;;;;;5.28;2.30;;;21.30;94.30;;;;;;5013739;28;20071;-86
2023/09/01 05:27:25;;;;;;;3.33;1.58;;;21.20;94.40;;;;;;5003214;28;20070;-87
2023/09/01 05:29:51;;;;;;;2.35;1.83;;;21.20;94.50;;;;;;5014337;28;20037;-85
2023/09/01 05:32:16;;;;;;;2.30;1.88;;;21.10;94.60;;;;;;5013271;28;20029;-86
2023/09/01 05:34:43;;;;;;;2.75;1.63;;;21.10;94.60;;;;;;5003428;28;20105;-86
2023/09/01 05:37:11;;;;;;;3.28;1.85;;;21.10;94.60;;;;;;5014441;28;20026;-86
2023/09/01 05:39:37;;;;;;;2.92;1.83;;;21.20;94.70;;;;;;5013446;28;21668;-78
2023/09/01 05:42:03;;;;;;;2.88;1.58;;;21.20;94.60;;;;;;5008347;28;20116;-86
2023/09/01 05:44:30;;;;;;;2.55;1.60;;;21.20;94.60;;;;;;5013105;28;20464;-87
2023/09/01 05:46:55;;;;;;;2.22;1.67;;;21.30;94.60;;;;;;4995833;28;20389;-87
2023/09/01 05:49:23;;;;;;;2.13;1.70;;;21.30;94.60;;;;;;5013883;28;20033;-87
2023/09/01 05:51:49;;;;;;;2.90;1.77;;;21.40;94.60;;;;;;5007828;28;20022;-86
2023/09/01 05:54:16;;;;;;;3.58;1.70;;;21.40;94.60;;;;;;5013419;28;20026;-89
2023/09/01 05:56:42;;;;;;;5.00;2.28;;;21.40;94.60;;;;;;5027250;28;20026;-88
2023/09/01 05:59:07;;;;;;;1.92;1.63;;;21.40;94.60;;;;;;5013373;28;20543;-87
2023/09/01 06:01:35;;;;;;;2.88;1.63;;;21.40;94.60;;;;;;5012413;28;20030;-88
2023/09/01 06:04:03;;;;;;;3.40;2.22;;;21.50;94.60;;;;;;5009866;28;20161;-90
2023/09/01 06:06:31;;;;;;;1.80;1.60;;;21.50;94.70;;;;;;5012908;28;20046;-89
2023/09/01 06:09:00;;;;;;;2.10;1.80;;;21.50;94.60;;;;;;5013099;28;20038;-83
2023/09/01 06:11:26;;;;;;;3.10;1.70;;;21.50;94.70;;;;;;5015820;28;20030;-88
2023/09/01 06:13:52;;;;;;;1.95;1.60;;;21.50;94.70;;;;;;5002625;28;20033;-89
2023/09/01 06:16:17;;;;;;;2.55;1.55;;;21.60;94.70;;;;;;5010982;28;20104;-89
2023/09/01 06:18:43;;;;;;;1.70;1.50;;;21.60;94.70;;;;;;5013819;28;20478;-88
2023/09/01 06:21:10;;;;;;;1.98;1.60;;;21.60;94.80;;;;;;5013393;28;20030;-86
2023/09/01 06:23:40;;;;;;;3.72;1.80;;;21.70;94.80;;;;;;5028376;28;20057;-87
2023/09/01 06:26:06;;;;;;;2.97;1.70;;;21.70;94.80;;;;;;5016532;28;20030;-87
2023/09/01 06:28:33;;;;;;;4.82;1.58;;;21.70;94.70;;;;;;5012703;28;20029;-89
2023/09/01 06:30:59;;;;;;;3.35;1.55;;;21.80;94.70;;;;;;5013320;28;20458;-91
2023/09/01 06:33:24;;;;;;;2.35;1.65;;;21.80;94.70;;;;;;5016122;28;20026;-87
2023/09/01 06:35:50;;;;;;;2.88;1.30;;;21.90;94.70;;;;;;5011310;28;20099;-88
2023/09/01 06:38:16;;;;;;;1.83;1.60;;;22.00;94.70;;;;;;5019320;28;20048;-87
2023/09/01 06:40:42;;;;;;;2.40;1.58;;;22.00;94.70;;;;;;5013296;28;20068;-79
2023/09/01 06:43:08;;;;;;;2.65;1.42;;;22.00;94.70;;;;;;5006313;28;20092;-79
2023/09/01 06:45:34;;;;;;;1.92;1.20;;;22.10;94.70;;;;;;5014398;28;20465;-79
2023/09/01 06:47:59;;;;;;;3.95;1.60;;;22.10;94.70;;;;;;5006400;28;20029;-80
2023/09/01 06:50:25;;;;;;;2.67;1.48;;;22.10;94.80;;;;;;5012617;28;20061;-79
2023/09/01 06:52:51;;;;;;;5.50;1.60;;;22.10;94.70;;;;;;5013771;28;20022;-79
2023/09/01 06:55:17;;;;;;;2.65;1.52;;;22.20;94.90;;;;;;5007708;28;20045;-79
2023/09/01 06:57:43;;;;;;;4.15;1.70;;;22.20;95.00;;;;;;5009024;28;20029;-79
2023/09/01 07:00:10;;;;;;;5.28;1.92;;;22.20;95.00;;;;;;5015201;28;20514;-79
2023/09/01 07:02:35;;;;;;;2.92;1.55;;;22.20;95.00;;;;;;5021482;28;20026;-78
2023/09/01 07:05:02;;;;;;;5.38;2.22;;;22.10;95.20;;;;;;5019145;28;20176;-88
2023/09/01 07:07:28;;;;;;;2.95;2.05;;;22.10;95.40;;;;;;5029111;28;20038;-88
2023/09/01 07:09:54;;;;;;;6.15;2.20;;;22.00;95.60;;;;;;5033632;28;20030;-88
2023/09/01 07:12:20;;;;;;;8.40;2.55;;;22.00;95.70;;;;;;5021051;28;20024;-88
2023/09/01 07:14:45;;;;;;;3.20;1.60;;;21.80;96.10;;;;;;5028582;28;20029;-88
2023/09/01 07:17:12;;;;;;;2.78;1.73;;;21.90;96.30;;;;;;5016365;28;20037;-88
2023/09/01 07:19:38;;;;;;;6.40;1.92;;;21.90;96.20;;;;;;5016497;28;20033;-88
2023/09/01 07:22:05;;;;;;;2.28;1.10;;;22.00;96.20;;;;;;5016410;28;20030;-88
2023/09/01 07:24:32;;;;;;;3.97;2.10;;;22.10;96.00;;;;;;4998124;28;20030;-87
2023/09/01 07:26:58;;;;;;;2.30;1.35;;;22.20;96.00;;;;;;5015063;28;20540;-80
2023/09/01 07:29:24;;;;;;;1.35;1.05;;;22.30;95.80;;;;;;5013419;28;20072;-79
2023/09/01 07:31:50;;;;;;;5.57;1.25;;;22.50;95.70;;;;;;5014143;28;20030;-79
2023/09/01 07:34:16;;;;;;;8.50;1.63;;;22.60;95.60;;;;;;5015425;28;20030;-78
2023/09/01 07:36:42;;;;;;;3.63;1.83;;;22.70;95.40;;;;;;4997956;28;20049;-78
2023/09/01 07:39:07;;;;;;;8.02;1.90;;;22.70;95.20;;;;;;5015399;28;20453;-78
2023/09/01 07:41:33;;;;;;;4.88;1.98;;;22.70;95.20;;;;;;5015050;28;20519;-78
2023/09/01 07:43:59;;;;;;;2.38;1.60;;;22.60;95.30;;;;;;5008910;28;20540;-78
2023/09/01 07:46:27;;;;;;;4.72;1.63;;;22.60;95.40;;;;;;5010273;28;20026;-79
2023/09/01 07:48:53;;;;;;;5.57;1.70;;;22.70;95.50;;;;;;5015754;28;20018;-88
2023/09/01 07:51:18;;;;;;;2.85;1.13;;;22.80;95.70;;;;;;5024306;28;20097;-88
2023/09/01 07:53:44;;;;;;;2.45;1.30;;;23.00;95.40;;;;;;4998214;28;20029;-88
2023/09/01 07:56:10;;;;;;;5.85;2.50;;;23.00;95.00;;;;;;5022175;28;20033;-88
2023/09/01 07:58:36;;;;;;;2.47;1.23;;;23.00;94.90;;;;;;5015915;28;20052;-87
2023/09/01 08:01:03;;;;;;;4.15;1.52;;;23.10;95.20;;;;;;5014597;28;20105;-88
2023/09/01 08:03:28;;;;;;;1.10;1.00;;;23.10;94.90;;;;;;5013645;28;20386;-90
2023/09/01 08:05:54;;;;;;;1.67;0.90;;;23.20;94.90;;;;;;5000617;28;20045;-89
2023/09/01 08:08:20;;;;;;;3.00;1.00;;;23.30;94.90;;;;;;5005306;28;20033;-88
2023/09/01 08:10:45;;;;;;;2.65;1.20;;;23.50;95.00;;;;;;5013887;28;20603;-80
2023/09/01 08:13:11;;;;;;;4.15;1.70;;;23.50;94.40;;;;;;5012932;28;20037;-80
2023/09/01 08:15:37;;;;;;;4.15;1.27;;;23.60;94.30;;;;;;5012961;28;20030;-81
2023/09/01 08:18:04;;;;;;;1.60;0.90;;;23.60;94.30;;;;;;5017266;28;20042;-80
2023/09/01 08:20:30;;;;;;;2.08;0.90;;;23.60;94.30;;;;;;5015115;28;20068;-80
2023/09/01 08:22:56;;;;;;;5.95;1.83;;;23.80;94.40;;;;;;5015096;28;20058;-80
2023/09/01 08:25:22;;;;;;;2.38;1.05;;;23.90;94.10;;;;;;5014951;28;20427;-80
2023/09/01 08:27:48;;;;;;;4.05;1.20;;;24.00;94.00;;;;;;5014452;28;20022;-80
2023/09/01 08:30:14;;;;;;;1.90;0.85;;;24.10;93.90;;;;;;5008930;28;20033;-80
2023/09/01 08:32:43;;;;;;;3.38;1.58;;;24.10;93.90;;;;;;5014827;28;20058;-80
2023/09/01 08:35:09;;;;;;;2.97;0.82;;;24.30;94.00;;;;;;5027848;28;20043;-80
2023/09/01 08:37:35;;;;;;;3.58;1.42;;;24.50;93.70;;;;;;5016247;28;20041;-79
2023/09/01 08:40:01;;;;;;;3.28;1.38;;;24.50;93.20;;;;;;5016940;28;20030;-80
2023/09/01 08:42:27;;;;;;;3.08;1.05;;;24.60;92.80;;;;;;5031942;28;20029;-80
2023/09/01 08:44:53;;;;;;;2.33;0.85;;;24.60;92.80;;;;;;5032661;28;20045;-80
2023/09/01 08:47:23;;;;;;;2.75;1.10;;;24.70;93.10;;;;;;5034326;28;20037;-80
2023/09/01 08:49:53;;;;;;;3.08;1.77;;;24.80;93.10;;;;;;5032541;28;20421;-80
2023/09/01 08:52:19;;;;;;;5.00;1.27;;;24.80;93.00;;;;;;5026377;28;20381;-81
2023/09/01 08:54:45;;;;;;;4.85;1.50;;;24.90;92.80;;;;;;4994457;28;20490;-80
2023/09/01 08:57:12;;;;;;;2.85;0.82;;;25.00;92.80;;;;;;4977340;28;20030;-80
2023/09/01 08:59:38;;;;;;;2.83;1.27;;;25.20;92.60;;;;;;4999886;28;20039;-80
2023/09/01 09:02:05;;;;;;;2.92;1.25;;;25.30;92.50;;;;;;5022246;28;20112;-81
2023/09/01 09:04:31;;;;;;;3.17;1.00;;;25.40;92.30;;;;;;5019009;28;20034;-80
2023/09/01 09:07:15;;;;;;;2.03;0.80;;;25.50;92.10;;;;;;5010533;28;20526;-80
2023/09/01 09:09:50;;;;;;;1.75;0.90;;;25.70;92.10;;;;;;5021443;28;20365;-80
2023/09/01 09:12:16;;;;;;;4.93;1.00;;;25.80;92.00;;;;;;5025848;28;20045;-79
2023/09/01 09:14:52;;;;;;;1.98;1.10;;;25.80;91.70;;;;;;5028277;28;20034;-80
2023/09/01 09:17:21;;;;;;;2.75;1.00;;;25.80;91.60;;;;;;5011956;28;20034;-80
2023/09/01 09:19:53;;;;;;;1.83;0.80;;;25.90;91.50;;;;;;5032415;28;20068;-80
2023/09/01 09:22:20;;;;;;;1.98;0.98;;;26.00;91.10;;;;;;5031828;28;20030;-80
2023/09/01 09:24:46;;;;;;;3.53;0.70;;;26.10;91.00;;;;;;5013758;28;20080;-80
2023/09/01 09:27:17;;;;;;;1.88;0.80;;;26.30;90.90;;;;;;5014959;28;20034;-80
2023/09/01 09:29:43;;;;;;;1.27;0.75;;;26.60;90.00;;;;;;5007491;28;20036;-80
2023/09/01 09:32:23;;;;;;;3.95;1.45;;;26.70;89.60;;;;;;5029561;28;20030;-80
2023/09/01 09:35:09;;;;;;;3.53;1.10;;;26.90;87.50;;;;;;5013586;28;20022;-80
2023/09/01 09:37:36;;;;;;;2.83;1.23;;;27.00;87.10;;;;;;5020834;28;20032;-80
2023/09/01 09:40:22;;;;;;;2.90;0.93;;;26.90;87.90;;;;;;5033194;28;20121;-81
2023/09/01 09:42:48;;;;;;;2.60;1.13;;;26.90;88.90;;;;;;5001473;28;20034;-80
2023/09/01 09:45:26;;;;;;;2.97;0.80;;;26.90;88.70;;;;;;5005809;28;20336;-80
2023/09/01 09:47:54;;;;;;;2.13;1.00;;;26.80;88.60;;;;;;5005337;28;20041;-80
2023/09/01 09:50:20;;;;;;;1.92;0.90;;;26.70;88.60;;;;;;5024841;28;20053;-80
2023/09/01 09:52:51;;;;;;;2.60;1.10;;;26.70;88.70;;;;;;5019558;28;20026;-80
2023/09/01 09:55:30;;;;;;;1.17;0.85;;;26.80;88.80;;;;;;5015370;28;20029;-80
2023/09/01 09:58:05;;;;;;;2.38;1.25;;;27.00;88.60;;;;;;5017799;28;20374;-80
2023/09/01 10:00:35;;;;;;;3.83;1.30;;;27.20;86.10;;;;;;5019178;28;20087;-80
2023/09/01 10:03:03;;;;;;;3.28;1.40;;;27.30;85.20;;;;;;5026628;28;20374;-80
2023/09/01 10:05:33;;;;;;;4.03;1.20;;;27.30;86.50;;;;;;5012698;28;20070;-80
2023/09/01 10:08:03;;;;;;;;;;;27.40;86.80;;;;;;4993541;28;20068;-81
2023/09/01 10:10:33;;;;;;;4.25;1.65;;;27.30;83.80;;;;;;5003510;28;20020;-80
2023/09/01 10:13:03;;;;;;;;;;;27.20;84.00;;;;;;4994735;28;20422;-80
2023/09/01 10:15:30;;;;;;;;;;;27.00;84.80;;;;;;5014586;28;20450;-80
2023/09/01 10:17:59;;;;;;;3.10;1.30;;;26.90;85.40;;;;;;5014322;28;19948;-80
2023/09/01 10:20:25;;;;;;;1.90;1.13;;;26.90;85.70;;;;;;5020246;28;20374;-80
2023/09/01 10:22:51;;;;;;;2.85;1.20;;;26.80;85.40;;;;;;5013493;28;20029;-80
2023/09/01 10:25:19;;;;;;;5.68;1.42;;;26.80;85.10;;;;;;4999868;28;20554;-80
2023/09/01 10:28:04;;;;;;;2.75;1.55;;;26.70;85.90;;;;;;4994894;28;20019;-80
2023/09/01 10:30:43;;;;;;;3.17;1.20;;;26.80;86.10;;;;;;4995601;28;20022;-80
2023/09/01 10:33:10;;;;;;;4.20;1.57;;;27.10;86.50;;;;;;5004410;28;20018;-80
2023/09/01 10:35:47;;;;;;;6.47;1.60;;;27.40;86.20;;;;;;5010825;28;20025;-80
2023/09/01 10:38:17;;;;;;;4.05;1.40;;;27.60;85.70;;;;;;5024324;28;20022;-80
2023/09/01 10:40:47;;;;;;;4.07;1.38;;;27.80;85.10;;;;;;5017052;28;20022;-80
2023/09/01 10:43:13;;;;;;;;;;;27.90;84.30;;;;;;5031964;28;20057;-80
2023/09/01 10:45:39;;;;;;;2.88;1.17;;;27.90;84.10;;;;;;5016889;28;20356;-80
2023/09/01 10:48:11;;;;;;;3.15;1.38;;;28.00;84.40;;;;;;5023780;28;20570;-80
2023/09/01 10:50:40;;;;;;;3.97;1.50;;;27.90;83.80;;;;;;5034189;28;20033;-89
2023/09/01 10:53:29;;;;;;;3.50;1.70;;;27.90;82.60;;;;;;5018900;28;20021;-89
2023/09/01 10:56:17;;;;;;;3.92;1.27;;;27.70;83.00;;;;;;5036626;28;20056;-89
2023/09/01 10:58:53;;;;;;;2.33;1.00;;;27.60;83.60;;;;;;5019126;28;20040;-89
2023/09/01 11:01:34;;;;;;;2.83;1.23;;;27.60;82.70;;;;;;5030265;28;20083;-80
2023/09/01 11:04:21;;;;;;;2.33;0.90;;;27.50;83.20;;;;;;5036347;28;20114;-80
2023/09/01 11:06:56;;;;;;;3.42;1.20;;;27.50;83.10;;;;;;4993976;28;20637;-80
2023/09/01 11:09:42;;;;;;;5.28;1.45;;;27.50;83.30;;;;;;5012484;28;20034;-89
2023/09/01 11:12:09;;;;;;;4.90;1.20;;;27.50;83.40;;;;;;4991783;28;20041;-90
2023/09/01 11:14:37;;;;;;;5.35;1.38;;;27.70;83.80;;;;;;5005498;28;20025;-90
2023/09/01 11:17:03;;;;;;;5.03;1.20;;;27.90;84.10;;;;;;5008326;28;20030;-90
2023/09/01 11:19:33;;;;;;;3.47;1.20;;;28.10;83.50;;;;;;4997905;28;20037;-89
2023/09/01 11:21:59;;;;;;;2.17;1.00;;;28.30;83.20;;;;;;5015402;28;20038;-90
2023/09/01 11:24:25;;;;;;;3.63;1.50;;;28.30;83.00;;;;;;5015518;28;20032;-91
2023/09/01 11:26:52;;;;;;;4.03;1.45;;;28.30;82.70;;;;;;5016351;28;20437;-90
2023/09/01 11:29:21;;;;;;;2.60;1.42;;;28.40;82.70;;;;;;5013476;28;20125;-80
2023/09/01 11:31:47;;;;;;;5.20;1.67;;;28.50;82.60;;;;;;5011804;28;20030;-81
2023/09/01 11:34:14;;;;;;;2.58;1.45;;;28.60;82.00;;;;;;5013561;28;20565;-80
2023/09/01 11:36:47;;;;;;;7.68;2.00;;;28.60;81.80;;;;;;4995439;28;20366;-81
2023/09/01 11:39:13;;;;;;;9.38;2.50;;;28.80;82.10;;;;;;5013438;28;20029;-79
2023/09/01 11:41:42;;;;;;;6.57;1.92;;;29.10;79.20;;;;;;4996989;28;20029;-79
2023/09/01 11:44:09;;;;;;;5.90;1.55;;;29.00;78.90;;;;;;4997915;28;20123;-80
2023/09/01 11:46:37;;;;;;;8.50;2.60;;;29.00;80.00;;;;;;5003237;28;20057;-79
2023/09/01 11:49:07;;;;;;;6.82;2.10;;;28.90;79.30;;;;;;5012233;28;20018;-80
2023/09/01 11:51:33;;;;;;;;;;;28.80;80.20;;;;;;5011080;28;20111;-89
2023/09/01 11:53:59;;;;;;;6.18;1.70;;;28.90;80.90;;;;;;5015434;28;19952;-89
2023/09/01 11:56:25;;;;;;;7.75;1.40;;;29.20;81.20;;;;;;5013920;28;20410;-89
2023/09/01 11:58:52;;;;;;;6.32;1.80;;;29.60;80.40;;;;;;5014325;28;20034;-89
2023/09/01 12:01:20;;;;;;;2.95;1.30;;;29.90;79.60;;;;;;5014407;28;20133;-90
2023/09/01 12:03:49;;;;;;;5.70;2.00;;;30.40;78.80;;;;;;5013867;28;20054;-89
2023/09/01 12:06:16;;;;;;;5.30;1.63;;;30.70;78.00;;;;;;5015249;28;20041;-90
2023/09/01 12:08:42;;;;;;;4.07;1.40;;;31.10;77.20;;;;;;5005073;28;20029;-89
2023/09/01 12:11:08;;;;;;;6.32;1.88;;;31.50;76.00;;;;;;5002846;28;20028;-89
2023/09/01 12:13:33;;;;;;;2.85;1.50;;;31.90;75.10;;;;;;5014376;28;20025;-88
2023/09/01 12:16:01;;;;;;;5.10;1.35;;;32.30;74.30;;;;;;5007848;28;20025;-91
2023/09/01 12:18:33;;;;;;;5.47;2.35;;;32.60;72.70;;;;;;5009530;28;20030;-89
2023/09/01 12:20:59;;;;;;;7.70;1.70;;;32.80;70.10;;;;;;5019575;28;20105;-91
2023/09/01 12:23:29;;;;;;;4.18;1.50;;;32.90;71.40;;;;;;5014443;28;20405;-90
2023/09/01 12:25:55;;;;;;;2.40;1.02;;;32.90;70.60;;;;;;5012180;28;20069;-91
2023/09/01 12:28:24;;;;;;;3.92;1.70;;;33.10;71.90;;;;;;5003006;28;20109;-90
2023/09/01 12:30:49;;;;;;;3.65;1.33;;;33.40;70.90;;;;;;5009850;28;20025;-89
2023/09/01 12:33:15;;;;;;;4.65;1.30;;;33.60;70.60;;;;;;5005787;28;20025;-90
2023/09/01 12:35:41;;;;;;;3.38;1.50;;;33.70;69.30;;;;;;5012922;28;20026;-90
2023/09/01 12:38:06;;;;;;;3.67;1.15;;;33.80;69.40;;;;;;5008932;28;20432;-89
2023/09/01 12:40:33;;;;;;;3.95;1.63;;;34.00;68.90;;;;;;5009885;28;20022;-90
2023/09/01 12:42:59;;;;;;;4.20;1.50;;;34.00;68.60;;;;;;5011959;28;20045;-91
2023/09/01 12:45:25;;;;;;;3.88;1.50;;;34.10;68.00;;;;;;5018959;28;20021;-91
2023/09/01 12:47:51;;;;;;;4.22;1.30;;;34.10;67.20;;;;;;5021944;28;20029;-80
2023/09/01 12:50:16;;;;;;;6.10;1.75;;;34.10;67.70;;;;;;4994940;28;20386;-80